Time;durP1;ratioP1;P1;durP2;ratioP2;P2;SDS_P1;SDS_P2;PMS_P1;PMS_P2;Temp;Humidity;BMP_temperature;BMP_pressure;BME280_temperature;BME280_humidity;BME280_pressure;Samples;Min_cycle;Max_cycle;Signal;HPM_P1;HPM_P2
2022/06/16 00:03:47;;;;;;;8.20;6.60;;;;;;;;;;10395466;28;20378;-77
2022/06/16 00:08:47;;;;;;;7.43;6.72;;;;;;;;;;10398869;28;20057;-79
2022/06/16 00:13:49;;;;;;;8.03;7.13;;;;;;;;;;10382360;28;20053;-78
2022/06/16 00:18:49;;;;;;;8.07;7.28;;;;;;;;;;10383460;28;20273;-78
2022/06/16 00:23:50;;;;;;;7.15;6.43;;;;;;;;;;10401871;28;20125;-77
2022/06/16 00:28:51;;;;;;;8.40;7.55;;;;;;;;;;10434447;28;20058;-78
2022/06/16 00:33:51;;;;;;;7.90;7.20;;;;;;;;;;10416503;28;20175;-77
2022/06/16 00:38:53;;;;;;;7.43;6.72;;;;;;;;;;10390432;28;20583;-77
2022/06/16 00:43:57;;;;;;;6.90;6.30;;;;;;;;;;10388906;28;20092;-76
2022/06/16 00:49:00;;;;;;;7.78;6.80;;;;;;;;;;10391605;28;20046;-77
2022/06/16 00:54:07;;;;;;;8.15;7.45;;;;;;;;;;10393924;28;20046;-77
2022/06/16 00:59:08;;;;;;;7.47;6.68;;;;;;;;;;10379884;28;20092;-77
2022/06/16 01:09:29;;;;;;;7.00;6.40;;;;;;;;;;10384762;28;20489;-77
2022/06/16 01:14:29;;;;;;;7.53;6.83;;;;;;;;;;10366284;28;20052;-77
2022/06/16 01:19:30;;;;;;;7.30;6.60;;;;;;;;;;10379837;28;20654;-77
2022/06/16 01:24:57;;;;;;;7.60;6.90;;;;;;;;;;10380024;28;20327;-80
2022/06/16 01:30:03;;;;;;;7.32;6.72;;;;;;;;;;10378522;28;20041;-78
2022/06/16 01:35:14;;;;;;;8.32;6.78;;;;;;;;;;10384338;28;20080;-77
2022/06/16 01:40:18;;;;;;;7.43;6.78;;;;;;;;;;10387417;28;20045;-78
2022/06/16 01:45:29;;;;;;;7.53;6.82;;;;;;;;;;10385288;28;20646;-78
2022/06/16 01:50:33;;;;;;;7.85;7.05;;;;;;;;;;10400699;28;20676;-78
2022/06/16 01:55:37;;;;;;;7.70;7.00;;;;;;;;;;10396123;28;20049;-76
2022/06/16 02:00:38;;;;;;;7.80;7.10;;;;;;;;;;10405880;28;20045;-76
2022/06/16 02:05:42;;;;;;;8.85;7.03;;;;;;;;;;10396268;28;20050;-76
2022/06/16 02:10:48;;;;;;;7.53;6.93;;;;;;;;;;10403673;28;20076;-75
2022/06/16 02:16:01;;;;;;;7.60;6.90;;;;;;;;;;10405886;28;20192;-77
2022/06/16 02:21:10;;;;;;;7.88;7.18;;;;;;;;;;10360545;28;20125;-77
2022/06/16 02:26:12;;;;;;;8.48;7.07;;;;;;;;;;10380022;28;20058;-76
2022/06/16 02:31:19;;;;;;;8.02;7.32;;;;;;;;;;10391468;28;20444;-76
2022/06/16 02:36:25;;;;;;;8.13;7.35;;;;;;;;;;10425090;28;20136;-76
2022/06/16 02:41:44;;;;;;;8.07;7.28;;;;;;;;;;10445570;28;20022;-77
2022/06/16 02:46:53;;;;;;;9.00;8.00;;;;;;;;;;10399249;28;20053;-77
2022/06/16 02:52:05;;;;;;;8.15;7.35;;;;;;;;;;10389748;28;20050;-77
2022/06/16 02:57:18;;;;;;;7.43;6.70;;;;;;;;;;10388911;28;20081;-77
2022/06/16 03:02:20;;;;;;;8.48;7.57;;;;;;;;;;10383500;28;20048;-77
2022/06/16 03:07:23;;;;;;;8.85;7.40;;;;;;;;;;10382935;28;20191;-76
2022/06/16 03:12:36;;;;;;;9.48;7.78;;;;;;;;;;10392125;28;20046;-76
2022/06/16 03:17:40;;;;;;;8.52;7.72;;;;;;;;;;10375603;28;20061;-76
2022/06/16 03:22:41;;;;;;;8.10;7.30;;;;;;;;;;10381913;28;20396;-76
2022/06/16 03:27:41;;;;;;;8.93;8.02;;;;;;;;;;10372446;28;20042;-76
2022/06/16 03:32:42;;;;;;;8.20;7.40;;;;;;;;;;10389808;28;20060;-77
2022/06/16 03:37:44;;;;;;;8.53;7.70;;;;;;;;;;10397896;28;20141;-77
2022/06/16 03:42:45;;;;;;;8.48;7.68;;;;;;;;;;10381673;28;20785;-77
2022/06/16 03:47:45;;;;;;;9.15;7.65;;;;;;;;;;10384878;28;20056;-75
2022/06/16 03:52:47;;;;;;;10.10;8.40;;;;;;;;;;10373753;28;20038;-77
2022/06/16 03:57:52;;;;;;;8.32;7.53;;;;;;;;;;10394618;28;20053;-77
2022/06/16 04:08:29;;;;;;;9.07;7.97;;;;;;;;;;10331052;28;20049;-76
2022/06/16 04:13:31;;;;;;;9.13;8.20;;;;;;;;;;10386866;28;20045;-77
2022/06/16 04:18:35;;;;;;;8.57;7.68;;;;;;;;;;10390179;28;20059;-76
2022/06/16 04:23:36;;;;;;;9.25;7.97;;;;;;;;;;10386854;28;20396;-76
2022/06/16 04:28:37;;;;;;;9.63;8.75;;;;;;;;;;10375435;28;20068;-77
2022/06/16 04:33:38;;;;;;;9.02;8.10;;;;;;;;;;10375413;28;20072;-76
2022/06/16 04:38:41;;;;;;;9.35;8.20;;;;;;;;;;10385294;28;20042;-78
2022/06/16 04:43:42;;;;;;;8.52;7.72;;;;;;;;;;10403259;28;20545;-78
2022/06/16 04:48:46;;;;;;;8.95;8.10;;;;;;;;;;10415028;28;20073;-78
2022/06/16 04:53:48;;;;;;;9.07;8.17;;;;;;;;;;10415814;28;20104;-80
2022/06/16 04:59:20;;;;;;;9.32;7.88;;;;;;;;;;10384389;28;20053;-77
2022/06/16 05:04:41;;;;;;;9.18;7.70;;;;;;;;;;10376619;28;20372;-77
2022/06/16 05:09:53;;;;;;;9.55;7.10;;;;;;;;;;10387436;28;20056;-77
2022/06/16 05:15:11;;;;;;;8.05;7.05;;;;;;;;;;10380491;28;20084;-77
2022/06/16 05:20:43;;;;;;;10.93;9.20;;;;;;;;;;10385660;28;20050;-77
2022/06/16 05:25:53;;;;;;;9.27;8.38;;;;;;;;;;10391167;28;20038;-78
2022/06/16 05:31:19;;;;;;;10.18;8.98;;;;;;;;;;10360977;28;20132;-77
2022/06/16 05:36:47;;;;;;;;;;;;;;;;;;10385980;28;20058;-76
2022/06/16 05:42:08;;;;;;;9.50;8.18;;;;;;;;;;10363286;28;19913;-78
2022/06/16 05:47:28;;;;;;;7.95;7.10;;;;;;;;;;10382008;28;20148;-76
2022/06/16 05:52:32;;;;;;;8.95;7.78;;;;;;;;;;10381943;28;20053;-77
2022/06/16 05:57:37;;;;;;;8.93;7.00;;;;;;;;;;10384118;28;20061;-76
2022/06/16 06:02:39;;;;;;;8.33;6.93;;;;;;;;;;10397013;28;20041;-77
2022/06/16 06:18:24;;;;;;;6.57;5.97;;;;;;;;;;10380637;28;20062;-78
2022/06/16 06:23:24;;;;;;;8.23;7.43;;;;;;;;;;10386379;28;20129;-77
2022/06/16 06:28:25;;;;;;;9.80;8.90;;;;;;;;;;10381756;28;20054;-76
2022/06/16 06:33:26;;;;;;;9.30;8.40;;;;;;;;;;10391128;28;20073;-79
2022/06/16 06:38:27;;;;;;;8.50;7.60;;;;;;;;;;10394433;28;20069;-80
2022/06/16 06:43:27;;;;;;;9.70;8.43;;;;;;;;;;10389155;28;20041;-75
2022/06/16 06:48:28;;;;;;;8.77;7.45;;;;;;;;;;10386375;28;20805;-78
2022/06/16 06:53:28;;;;;;;7.38;6.68;;;;;;;;;;10389005;28;20064;-78
2022/06/16 06:58:32;;;;;;;8.23;7.18;;;;;;;;;;10395765;28;20131;-79
2022/06/16 07:03:33;;;;;;;7.13;6.50;;;;;;;;;;10419229;28;20040;-78
2022/06/16 07:08:34;;;;;;;8.27;7.43;;;;;;;;;;10424435;28;20057;-76
2022/06/16 07:13:34;;;;;;;7.05;6.35;;;;;;;;;;10404031;28;20133;-77
2022/06/16 07:18:35;;;;;;;8.50;7.70;;;;;;;;;;10391927;28;20070;-77
2022/06/16 07:23:35;;;;;;;7.60;7.00;;;;;;;;;;10399184;28;20306;-75
2022/06/16 07:28:36;;;;;;;7.95;7.28;;;;;;;;;;10377974;28;20052;-74
2022/06/16 07:33:36;;;;;;;7.45;6.72;;;;;;;;;;10390765;28;20464;-77
2022/06/16 07:38:37;;;;;;;8.10;7.30;;;;;;;;;;10387095;28;20053;-76
2022/06/16 07:43:37;;;;;;;7.82;7.13;;;;;;;;;;10387423;28;20073;-76
2022/06/16 07:48:38;;;;;;;8.07;7.20;;;;;;;;;;10384860;28;20553;-75
2022/06/16 07:53:38;;;;;;;7.55;6.88;;;;;;;;;;10380122;28;20283;-76
2022/06/16 07:58:39;;;;;;;7.88;7.10;;;;;;;;;;10391002;28;20058;-73
2022/06/16 08:03:39;;;;;;;7.97;7.18;;;;;;;;;;10395447;28;20067;-74
2022/06/16 08:08:40;;;;;;;6.90;6.30;;;;;;;;;;10396806;28;20045;-73
2022/06/16 08:13:40;;;;;;;7.55;6.75;;;;;;;;;;10380606;28;20053;-73
2022/06/16 08:18:41;;;;;;;8.33;7.53;;;;;;;;;;10389152;28;20479;-73
2022/06/16 08:23:41;;;;;;;9.07;7.70;;;;;;;;;;10383270;28;20294;-72
2022/06/16 08:28:42;;;;;;;7.45;6.72;;;;;;;;;;10381061;28;20281;-73
2022/06/16 08:33:43;;;;;;;10.13;8.98;;;;;;;;;;10390194;28;20480;-72
2022/06/16 08:38:43;;;;;;;6.97;6.38;;;;;;;;;;10392292;28;20057;-73
2022/06/16 08:44:04;;;;;;;6.10;5.50;;;;;;;;;;10390739;28;20059;-72
2022/06/16 08:49:04;;;;;;;6.53;5.93;;;;;;;;;;10375537;28;20289;-73
2022/06/16 08:54:08;;;;;;;7.00;6.30;;;;;;;;;;10388249;28;20041;-72
2022/06/16 08:59:23;;;;;;;5.82;5.32;;;;;;;;;;10378131;28;20053;-74
2022/06/16 09:04:37;;;;;;;7.15;6.53;;;;;;;;;;10384161;28;20054;-71
2022/06/16 09:15:19;;;;;;;6.40;5.72;;;;;;;;;;10412738;28;20050;-73
2022/06/16 09:20:28;;;;;;;7.00;6.30;;;;;;;;;;10409874;28;20423;-72
2022/06/16 09:25:40;;;;;;;6.22;5.72;;;;;;;;;;10371299;28;20426;-73
2022/06/16 09:30:43;;;;;;;5.85;5.35;;;;;;;;;;10384126;28;20042;-70
2022/06/16 09:35:48;;;;;;;5.85;5.25;;;;;;;;;;10371274;28;20119;-72
2022/06/16 09:40:57;;;;;;;6.82;6.03;;;;;;;;;;10383532;28;20084;-73
2022/06/16 09:46:03;;;;;;;5.40;5.00;;;;;;;;;;10381903;28;20049;-73
2022/06/16 09:51:06;;;;;;;5.03;4.57;;;;;;;;;;10373097;28;20057;-72
2022/06/16 09:56:09;;;;;;;5.38;4.88;;;;;;;;;;10384932;28;20061;-73
2022/06/16 10:01:12;;;;;;;7.43;6.50;;;;;;;;;;10378748;28;20144;-73
2022/06/16 10:06:12;;;;;;;6.03;5.40;;;;;;;;;;10380558;28;20511;-73
2022/06/16 10:11:33;;;;;;;5.53;5.03;;;;;;;;;;10379323;28;20045;-72
2022/06/16 10:16:43;;;;;;;7.88;4.55;;;;;;;;;;10373775;28;20056;-74
2022/06/16 10:21:43;;;;;;;5.20;4.72;;;;;;;;;;10379951;28;20075;-73
2022/06/16 10:26:43;;;;;;;5.57;4.33;;;;;;;;;;10377741;28;20048;-75
2022/06/16 10:31:48;;;;;;;5.27;4.80;;;;;;;;;;10385139;28;20046;-77
2022/06/16 10:37:03;;;;;;;5.47;4.97;;;;;;;;;;10367080;28;20054;-78
2022/06/16 10:42:22;;;;;;;11.77;9.82;;;;;;;;;;10382159;28;20056;-76
2022/06/16 10:47:31;;;;;;;5.18;4.78;;;;;;;;;;10398613;28;20393;-76
2022/06/16 10:52:42;;;;;;;4.97;4.57;;;;;;;;;;10396136;28;20045;-78
2022/06/16 10:57:48;;;;;;;5.22;4.72;;;;;;;;;;10388260;28;20064;-75
2022/06/16 11:03:03;;;;;;;4.60;3.95;;;;;;;;;;10399235;28;20117;-76
2022/06/16 11:08:08;;;;;;;5.55;5.05;;;;;;;;;;10394179;28;20046;-75
2022/06/16 11:13:15;;;;;;;6.68;4.88;;;;;;;;;;10391368;28;20138;-76
2022/06/16 11:18:20;;;;;;;5.47;4.47;;;;;;;;;;10437905;28;20038;-75
2022/06/16 11:23:31;;;;;;;3.83;3.47;;;;;;;;;;10435805;28;20045;-75
2022/06/16 11:28:40;;;;;;;4.53;4.03;;;;;;;;;;10398270;28;20061;-77
2022/06/16 11:39:04;;;;;;;4.60;4.10;;;;;;;;;;10396001;28;20052;-76
2022/06/16 11:44:35;;;;;;;4.93;4.35;;;;;;;;;;10398459;28;20038;-77
2022/06/16 11:49:42;;;;;;;11.45;5.10;;;;;;;;;;10370935;28;20069;-77
2022/06/16 11:55:01;;;;;;;5.75;4.85;;;;;;;;;;10391860;28;20100;-76
2022/06/16 12:00:16;;;;;;;6.07;4.90;;;;;;;;;;10392107;28;20836;-76
2022/06/16 12:05:22;;;;;;;5.00;4.60;;;;;;;;;;10390317;28;20054;-76
2022/06/16 12:10:23;;;;;;;5.07;4.57;;;;;;;;;;10405177;28;20045;-75
2022/06/16 12:15:38;;;;;;;4.77;4.37;;;;;;;;;;10406530;28;20054;-75
2022/06/16 12:20:57;;;;;;;5.45;4.60;;;;;;;;;;10405209;28;20350;-76
2022/06/16 12:26:08;;;;;;;4.90;4.10;;;;;;;;;;10382041;28;20052;-76
2022/06/16 12:31:08;;;;;;;4.97;3.95;;;;;;;;;;10381113;28;20045;-78
2022/06/16 12:36:17;;;;;;;4.43;4.03;;;;;;;;;;10388581;28;20404;-75
2022/06/16 12:41:45;;;;;;;4.38;3.97;;;;;;;;;;10380669;28;20045;-75
2022/06/16 12:46:51;;;;;;;4.20;3.80;;;;;;;;;;10389361;28;20050;-77
2022/06/16 12:51:53;;;;;;;5.50;4.57;;;;;;;;;;10379198;28;20046;-77
2022/06/16 12:57:01;;;;;;;4.03;3.72;;;;;;;;;;10384760;28;20060;-77
2022/06/16 13:02:05;;;;;;;4.50;4.05;;;;;;;;;;10356382;28;20133;-76
2022/06/16 13:07:10;;;;;;;4.05;3.72;;;;;;;;;;10375636;28;20045;-76
2022/06/16 13:12:30;;;;;;;5.22;3.50;;;;;;;;;;10392684;28;20046;-76
2022/06/16 13:17:34;;;;;;;4.38;4.00;;;;;;;;;;10382327;28;20060;-75
2022/06/16 13:22:35;;;;;;;4.32;3.92;;;;;;;;;;10425410;28;20058;-77
2022/06/16 13:27:38;;;;;;;6.83;4.17;;;;;;;;;;10421000;28;20048;-76
2022/06/16 13:32:38;;;;;;;4.32;3.20;;;;;;;;;;10388944;28;20136;-75
2022/06/16 13:37:46;;;;;;;3.90;3.60;;;;;;;;;;10381267;28;20482;-76
2022/06/16 13:42:56;;;;;;;5.45;3.72;;;;;;;;;;10382995;28;20506;-76
2022/06/16 13:48:16;;;;;;;5.78;3.42;;;;;;;;;;10375016;28;20187;-78
2022/06/16 13:53:19;;;;;;;4.05;3.45;;;;;;;;;;10395882;28;20044;-77
2022/06/16 13:58:26;;;;;;;4.07;3.58;;;;;;;;;;10386651;28;20078;-76
2022/06/16 14:03:29;;;;;;;4.70;3.70;;;;;;;;;;10384391;28;20042;-77
2022/06/16 14:08:29;;;;;;;5.80;3.55;;;;;;;;;;10383985;28;20070;-76
2022/06/16 14:13:39;;;;;;;9.73;4.13;;;;;;;;;;10392106;28;20548;-76
2022/06/16 14:18:59;;;;;;;3.92;3.55;;;;;;;;;;10377010;28;20084;-77
2022/06/16 14:24:03;;;;;;;5.28;3.65;;;;;;;;;;10391779;28;20049;-77
2022/06/16 14:29:07;;;;;;;5.45;3.47;;;;;;;;;;10386117;28;20049;-76
2022/06/16 14:34:11;;;;;;;4.43;3.45;;;;;;;;;;10390015;28;20046;-76
2022/06/16 14:39:27;;;;;;;4.97;3.47;;;;;;;;;;10379210;28;20049;-75
2022/06/16 14:44:39;;;;;;;4.13;3.78;;;;;;;;;;10377255;28;20050;-76
2022/06/16 14:49:43;;;;;;;3.70;3.35;;;;;;;;;;10388892;28;20132;-76
2022/06/16 14:54:47;;;;;;;4.70;3.40;;;;;;;;;;10392659;28;20104;-76
2022/06/16 14:59:55;;;;;;;4.63;3.20;;;;;;;;;;10392664;28;20054;-76
2022/06/16 15:04:56;;;;;;;3.95;3.13;;;;;;;;;;10382527;28;20061;-76
2022/06/16 15:09:57;;;;;;;4.63;2.80;;;;;;;;;;10388737;28;20037;-76
2022/06/16 15:14:57;;;;;;;4.00;3.20;;;;;;;;;;10387188;28;20054;-77
2022/06/16 15:19:58;;;;;;;3.20;2.90;;;;;;;;;;10389245;28;20216;-76
2022/06/16 15:25:00;;;;;;;3.60;2.70;;;;;;;;;;10437339;28;20041;-77
2022/06/16 15:30:07;;;;;;;3.58;2.90;;;;;;;;;;10432896;28;20042;-75
2022/06/16 15:40:37;;;;;;;3.42;3.03;;;;;;;;;;10390770;28;20121;-77
2022/06/16 15:45:43;;;;;;;3.20;2.90;;;;;;;;;;10393032;28;20111;-76
2022/06/16 15:50:44;;;;;;;4.47;2.78;;;;;;;;;;10392298;28;20049;-76
2022/06/16 15:55:46;;;;;;;2.73;2.47;;;;;;;;;;10393515;28;20079;-76
2022/06/16 16:00:47;;;;;;;3.47;2.67;;;;;;;;;;10388939;28;20054;-76
2022/06/16 16:05:48;;;;;;;2.70;2.50;;;;;;;;;;10384160;28;20060;-76
2022/06/16 16:10:50;;;;;;;4.35;2.70;;;;;;;;;;10388040;28;20120;-77
2022/06/16 16:15:53;;;;;;;3.65;3.35;;;;;;;;;;10386630;28;20503;-79
2022/06/16 16:20:56;;;;;;;4.93;2.78;;;;;;;;;;10392699;28;20148;-75
2022/06/16 16:25:58;;;;;;;4.30;2.92;;;;;;;;;;10384748;28;20064;-75
2022/06/16 16:31:19;;;;;;;3.63;2.90;;;;;;;;;;10385556;28;20113;-77
2022/06/16 16:36:20;;;;;;;4.87;2.60;;;;;;;;;;10374795;28;20057;-76
2022/06/16 16:46:59;;;;;;;3.15;2.67;;;;;;;;;;10384920;28;20456;-76
2022/06/16 16:51:59;;;;;;;3.28;2.97;;;;;;;;;;10376215;28;20451;-76
2022/06/16 16:56:59;;;;;;;6.60;3.80;;;;;;;;;;10391866;28;20087;-78
2022/06/16 17:02:00;;;;;;;5.70;3.00;;;;;;;;;;10382140;28;20049;-77
2022/06/16 17:07:00;;;;;;;3.00;2.80;;;;;;;;;;10380983;28;20686;-77
2022/06/16 17:12:01;;;;;;;4.60;3.60;;;;;;;;;;10372142;28;20057;-77
2022/06/16 17:17:03;;;;;;;4.43;2.60;;;;;;;;;;10380757;28;20062;-76
2022/06/16 17:22:04;;;;;;;2.88;2.55;;;;;;;;;;10397389;28;20108;-76
2022/06/16 17:27:05;;;;;;;3.83;2.67;;;;;;;;;;10403694;28;20046;-72
2022/06/16 17:32:08;;;;;;;4.78;3.53;;;;;;;;;;10408389;28;20512;-75
2022/06/16 17:37:20;;;;;;;3.30;2.75;;;;;;;;;;10377063;28;20493;-74
2022/06/16 17:42:21;;;;;;;2.78;2.58;;;;;;;;;;10381144;28;20099;-77
2022/06/16 17:47:24;;;;;;;3.30;2.50;;;;;;;;;;10386694;28;20390;-75
2022/06/16 18:02:29;;;;;;;2.80;2.60;;;;;;;;;;10377255;28;20045;-77
2022/06/16 18:07:31;;;;;;;4.25;2.60;;;;;;;;;;10388310;28;20200;-76
2022/06/16 18:12:33;;;;;;;3.90;2.35;;;;;;;;;;10396026;28;20065;-77
2022/06/16 18:17:34;;;;;;;;;;;;;;;;;;10390331;28;20072;-76
2022/06/16 18:22:36;;;;;;;2.40;2.20;;;;;;;;;;10384593;28;20025;-75
2022/06/16 18:27:37;;;;;;;3.47;2.08;;;;;;;;;;10378247;28;20076;-75
2022/06/16 18:32:38;;;;;;;3.05;2.00;;;;;;;;;;10369939;28;20050;-75
2022/06/16 18:37:38;;;;;;;2.78;1.92;;;;;;;;;;10374732;28;20136;-76
2022/06/16 18:42:40;;;;;;;2.63;2.25;;;;;;;;;;10373441;28;20476;-72
2022/06/16 18:47:42;;;;;;;2.10;1.90;;;;;;;;;;10375431;28;20489;-72
2022/06/16 18:52:43;;;;;;;3.20;2.28;;;;;;;;;;10394509;28;20840;-73
2022/06/16 18:57:44;;;;;;;1.77;1.48;;;;;;;;;;10381067;28;20144;-74
2022/06/16 19:02:46;;;;;;;2.30;2.10;;;;;;;;;;10383577;28;20056;-73
2022/06/16 19:07:46;;;;;;;2.45;2.08;;;;;;;;;;10378053;28;20469;-73
2022/06/16 19:12:49;;;;;;;2.33;2.13;;;;;;;;;;10383808;28;20157;-74
2022/06/16 19:17:54;;;;;;;2.13;1.90;;;;;;;;;;10394830;28;20160;-74
2022/06/16 19:22:58;;;;;;;2.40;2.20;;;;;;;;;;10386776;28;20053;-73
2022/06/16 19:27:59;;;;;;;2.70;2.17;;;;;;;;;;10404597;28;20069;-73
2022/06/16 19:32:59;;;;;;;2.50;2.10;;;;;;;;;;10406804;28;20037;-75
2022/06/16 19:38:00;;;;;;;2.33;2.00;;;;;;;;;;10384448;28;20062;-73
2022/06/16 19:43:02;;;;;;;2.38;2.10;;;;;;;;;;10372440;28;20552;-74
2022/06/16 19:53:27;;;;;;;3.38;2.17;;;;;;;;;;10383086;28;20070;-74
2022/06/16 19:58:27;;;;;;;3.33;2.15;;;;;;;;;;10389357;28;20129;-73
2022/06/16 20:03:29;;;;;;;2.67;2.30;;;;;;;;;;10383571;28;20460;-76
2022/06/16 20:08:32;;;;;;;5.10;4.60;;;;;;;;;;10385608;28;20440;-76
2022/06/16 20:13:33;;;;;;;4.65;2.75;;;;;;;;;;10373829;28;20072;-76
2022/06/16 20:18:34;;;;;;;3.20;2.60;;;;;;;;;;10378926;28;20057;-78
2022/06/16 20:23:36;;;;;;;2.90;2.70;;;;;;;;;;10379738;28;20041;-77
2022/06/16 20:28:37;;;;;;;4.22;3.15;;;;;;;;;;10374295;28;20069;-77
2022/06/16 20:33:39;;;;;;;3.73;3.03;;;;;;;;;;10386934;28;20120;-76
2022/06/16 20:38:39;;;;;;;3.80;2.83;;;;;;;;;;10378629;28;20096;-77
2022/06/16 20:43:39;;;;;;;3.00;2.70;;;;;;;;;;10382724;28;20106;-76
2022/06/16 20:48:45;;;;;;;3.53;3.23;;;;;;;;;;10386563;28;20053;-78
2022/06/16 20:53:46;;;;;;;3.88;3.08;;;;;;;;;;10390587;28;20314;-77
2022/06/16 21:04:05;;;;;;;3.63;2.78;;;;;;;;;;10387659;28;20042;-79
2022/06/16 21:09:09;;;;;;;3.13;2.83;;;;;;;;;;10390225;28;20050;-77
2022/06/16 21:14:10;;;;;;;4.72;3.00;;;;;;;;;;10383094;28;20049;-78
2022/06/16 21:19:11;;;;;;;3.37;3.07;;;;;;;;;;10382337;28;20061;-76
2022/06/16 21:24:20;;;;;;;3.20;3.00;;;;;;;;;;10387579;28;20317;-77
2022/06/16 21:29:21;;;;;;;4.50;3.22;;;;;;;;;;10391093;28;20089;-77
2022/06/16 21:34:22;;;;;;;3.28;2.97;;;;;;;;;;10435058;28;20064;-77
2022/06/16 21:39:23;;;;;;;3.70;3.20;;;;;;;;;;10397593;28;20065;-76
2022/06/16 21:44:23;;;;;;;3.85;3.30;;;;;;;;;;10390541;28;20285;-79
2022/06/16 21:49:25;;;;;;;3.40;3.10;;;;;;;;;;10401345;28;20041;-77
2022/06/16 21:54:26;;;;;;;3.53;3.13;;;;;;;;;;10385225;28;20045;-77
2022/06/16 21:59:26;;;;;;;3.20;2.88;;;;;;;;;;10392162;28;20151;-77
2022/06/16 22:04:31;;;;;;;3.50;3.00;;;;;;;;;;10382973;28;20149;-77
2022/06/16 22:09:32;;;;;;;3.55;3.20;;;;;;;;;;10384146;28;20125;-77
2022/06/16 22:19:52;;;;;;;4.50;3.00;;;;;;;;;;10380221;28;20137;-77
2022/06/16 22:24:53;;;;;;;3.53;3.03;;;;;;;;;;10373109;28;20541;-76
2022/06/16 22:29:53;;;;;;;3.70;3.15;;;;;;;;;;10380608;28;20058;-76
2022/06/16 22:34:55;;;;;;;3.47;3.07;;;;;;;;;;10369440;28;20053;-77
2022/06/16 22:45:14;;;;;;;4.90;3.50;;;;;;;;;;10388311;28;20144;-76
2022/06/16 22:50:17;;;;;;;3.65;3.35;;;;;;;;;;10383368;28;20405;-77
2022/06/16 23:00:42;;;;;;;4.47;3.45;;;;;;;;;;10373479;28;20059;-77
2022/06/16 23:05:43;;;;;;;3.25;2.90;;;;;;;;;;10396094;28;20069;-77
2022/06/16 23:10:45;;;;;;;3.58;3.20;;;;;;;;;;10374535;28;20423;-76
2022/06/16 23:15:46;;;;;;;3.53;3.00;;;;;;;;;;10402020;28;20064;-76
2022/06/16 23:20:46;;;;;;;3.45;3.15;;;;;;;;;;10381576;28;20394;-76
2022/06/16 23:25:48;;;;;;;4.10;3.10;;;;;;;;;;10380929;28;20054;-78
2022/06/16 23:30:52;;;;;;;3.97;2.90;;;;;;;;;;10392362;28;20121;-77
2022/06/16 23:35:52;;;;;;;3.97;3.33;;;;;;;;;;10385463;28;20058;-77
2022/06/16 23:40:53;;;;;;;4.22;3.35;;;;;;;;;;10433014;28;20042;-78
2022/06/16 23:45:53;;;;;;;3.97;3.28;;;;;;;;;;10424110;28;20131;-78
2022/06/16 23:50:58;;;;;;;3.90;3.38;;;;;;;;;;10388577;28;20111;-78
2022/06/16 23:56:00;;;;;;;4.20;3.72;;;;;;;;;;10380747;28;20072;-75
